Time;durP1;ratioP1;P1;durP2;ratioP2;P2;SDS_P1;SDS_P2;PMS_P1;PMS_P2;Temp;Humidity;BMP_temperature;BMP_pressure;BME280_temperature;BME280_humidity;BME280_pressure;Samples;Min_cycle;Max_cycle;Signal;HPM_P1;HPM_P2
2021/05/28 00:02:14;;;;;;;;;;;;;;;;;;5088710;28;19959;-71
2021/05/28 00:04:41;;;;;;;;;;;;;;;;;;5091479;28;20451;-72
2021/05/28 00:07:07;;;;;;;;;;;;;;;;;;5092957;28;19908;-72
2021/05/28 00:09:33;;;;;;;;;;;;;;;;;;5091237;28;19914;-72
2021/05/28 00:11:59;;;;;;;;;;;;;;;;;;5080769;28;19916;-72
2021/05/28 00:14:25;;;;;;;;;;;;;;;;;;5079004;28;20411;-73
2021/05/28 00:16:51;;;;;;;;;;;;;;;;;;5072926;28;19936;-72
2021/05/28 00:19:17;;;;;;;;;;;;;;;;;;5079767;28;19993;-72
2021/05/28 00:21:43;;;;;;;;;;;;;;;;;;5089538;28;19942;-72
2021/05/28 00:24:09;;;;;;;;;;;;;;;;;;5072964;28;19966;-72
2021/05/28 00:26:34;;;;;;;;;;;;;;;;;;5072771;28;19911;-72
2021/05/28 00:29:00;;;;;;;;;;;;;;;;;;5082773;28;19950;-71
2021/05/28 00:31:26;;;;;;;;;;;;;;;;;;5093386;28;19916;-72
2021/05/28 00:33:52;;;;;;;;;;;;;;;;;;5092921;28;20456;-72
2021/05/28 00:36:18;;;;;;;;;;;;;;;;;;5090581;28;19904;-73
2021/05/28 00:38:44;;;;;;;;;;;;;;;;;;5076010;28;19908;-72
2021/05/28 00:41:10;;;;;;;;;;;;;;;;;;5085209;28;19969;-72
2021/05/28 00:43:36;;;;;;;;;;;;;;;;;;5092593;28;19915;-73
2021/05/28 00:46:02;;;;;;;;;;;;;;;;;;5089197;28;20386;-71
2021/05/28 00:48:27;;;;;;;;;;;;;;;;;;5079596;28;19927;-72
2021/05/28 00:50:53;;;;;;;;;;;;;;;;;;5091084;28;19912;-72
2021/05/28 00:53:19;;;;;;;;;;;;;;;;;;5092946;28;20253;-71
2021/05/28 00:55:45;;;;;;;;;;;;;;;;;;5089366;28;20302;-72
2021/05/28 00:58:11;;;;;;;;;;;;;;;;;;5091809;28;19915;-72
2021/05/28 01:00:37;;;;;;;;;;;;;;;;;;5088993;28;20475;-73
2021/05/28 01:03:03;;;;;;;;;;;;;;;;;;5076688;28;20443;-72
2021/05/28 01:05:29;;;;;;;;;;;;;;;;;;5072028;28;20025;-72
2021/05/28 01:07:55;;;;;;;;;;;;;;;;;;5090159;28;19961;-71
2021/05/28 01:10:21;;;;;;;;;;;;;;;;;;5074197;28;20274;-72
2021/05/28 01:12:47;;;;;;;;;;;;;;;;;;5082317;28;20027;-73
2021/05/28 01:15:13;;;;;;;;;;;;;;;;;;5091395;28;19961;-73
2021/05/28 01:17:39;;;;;;;;;;;;;;;;;;5086490;28;19915;-72
2021/05/28 01:20:05;;;;;;;;;;;;;;;;;;5071397;28;19951;-72
2021/05/28 01:22:31;;;;;;;;;;;;;;;;;;5072561;28;19927;-72
2021/05/28 01:25:00;;;;;;;;;;;;;;;;;;5084225;28;19919;-72
2021/05/28 01:27:26;;;;;;;;;;;;;;;;;;5083432;28;19960;-72
2021/05/28 01:29:52;;;;;;;;;;;;;;;;;;5089866;28;20323;-72
2021/05/28 01:32:17;;;;;;;;;;;;;;;;;;5081215;28;19912;-72
2021/05/28 01:34:43;;;;;;;;;;;;;;;;;;5090489;28;20373;-72
2021/05/28 01:37:09;;;;;;;;;;;;;;;;;;5071647;28;19904;-73
2021/05/28 01:39:35;;;;;;;;;;;;;;;;;;5072257;28;19912;-72
2021/05/28 01:42:01;;;;;;;;;;;;;;;;;;5083166;28;19924;-72
2021/05/28 01:44:27;;;;;;;;;;;;;;;;;;5071615;28;20005;-73
2021/05/28 01:46:53;;;;;;;;;;;;;;;;;;5072157;28;19912;-72
2021/05/28 01:49:19;;;;;;;;;;;;;;;;;;5081257;28;19916;-72
2021/05/28 01:51:44;;;;;;;;;;;;;;;;;;5078929;28;20343;-72
2021/05/28 01:54:10;;;;;;;;;;;;;;;;;;5091430;28;19994;-72
2021/05/28 01:56:36;;;;;;;;;;;;;;;;;;5089830;28;19914;-73
2021/05/28 01:59:02;;;;;;;;;;;;;;;;;;5089138;28;19911;-72
2021/05/28 02:01:28;;;;;;;;;;;;;;;;;;5082678;28;19963;-72
2021/05/28 02:03:54;;;;;;;;;;;;;;;;;;5079880;28;19909;-73
2021/05/28 02:06:20;;;;;;;;;;;;;;;;;;5087121;28;19916;-72
2021/05/28 02:08:46;;;;;;;;;;;;;;;;;;5090733;28;20642;-72
2021/05/28 02:11:12;;;;;;;;;;;;;;;;;;5077791;28;20007;-73
2021/05/28 02:13:37;;;;;;;;;;;;;;;;;;5088337;28;19951;-72
2021/05/28 02:16:03;;;;;;;;;;;;;;;;;;5070894;28;19908;-72
2021/05/28 02:18:29;;;;;;;;;;;;;;;;;;5073328;28;19909;-72
2021/05/28 02:20:55;;;;;;;;;;;;;;;;;;5078897;28;19907;-72
2021/05/28 02:23:21;;;;;;;;;;;;;;;;;;5073027;28;20341;-72
2021/05/28 02:25:47;;;;;;;;;;;;;;;;;;5082295;28;19908;-72
2021/05/28 02:28:13;;;;;;;;;;;;;;;;;;5087483;28;19908;-72
2021/05/28 02:30:39;;;;;;;;;;;;;;;;;;5070141;28;20351;-72
2021/05/28 02:33:05;;;;;;;;;;;;;;;;;;5072623;28;19955;-72
2021/05/28 02:35:30;;;;;;;;;;;;;;;;;;5090347;28;19904;-73
2021/05/28 02:37:56;;;;;;;;;;;;;;;;;;5071216;28;19949;-73
2021/05/28 02:40:22;;;;;;;;;;;;;;;;;;5076016;28;19912;-71
2021/05/28 02:42:48;;;;;;;;;;;;;;;;;;5071117;28;20394;-72
2021/05/28 02:45:14;;;;;;;;;;;;;;;;;;5072348;28;20366;-72
2021/05/28 02:47:40;;;;;;;;;;;;;;;;;;5071453;28;19920;-71
2021/05/28 02:50:06;;;;;;;;;;;;;;;;;;5073693;28;19912;-72
2021/05/28 02:52:32;;;;;;;;;;;;;;;;;;5071945;28;19915;-72
2021/05/28 02:54:58;;;;;;;;;;;;;;;;;;5090994;28;20369;-72
2021/05/28 02:57:24;;;;;;;;;;;;;;;;;;5088397;28;19904;-72
2021/05/28 02:59:49;;;;;;;;;;;;;;;;;;5083560;28;20007;-72
2021/05/28 03:02:18;;;;;;;;;;;;;;;;;;5076802;28;19922;-72
2021/05/28 03:04:43;;;;;;;;;;;;;;;;;;5086362;28;19916;-72
2021/05/28 03:07:09;;;;;;;;;;;;;;;;;;5080628;28;19908;-72
2021/05/28 03:09:35;;;;;;;;;;;;;;;;;;5076535;28;19912;-72
2021/05/28 03:12:01;;;;;;;;;;;;;;;;;;5083024;28;19923;-72
2021/05/28 03:14:27;;;;;;;;;;;;;;;;;;5088715;28;20417;-72
2021/05/28 03:16:53;;;;;;;;;;;;;;;;;;5070386;28;19961;-72
2021/05/28 03:19:26;;;;;;;;;;;;;;;;;;5081220;28;19924;-72
2021/05/28 03:24:37;;;;;;;;;;;;;;;;;;5071185;28;19911;-72
2021/05/28 03:27:02;;;;;;;;;;;;;;;;;;5070232;28;19909;-72
2021/05/28 03:29:28;;;;;;;;;;;;;;;;;;5076498;28;19955;-72
2021/05/28 03:31:54;;;;;;;;;;;;;;;;;;5090586;28;20363;-72
2021/05/28 03:34:20;;;;;;;;;;;;;;;;;;5080058;28;19917;-72
2021/05/28 03:36:46;;;;;;;;;;;;;;;;;;5070383;28;20042;-72
2021/05/28 03:39:12;;;;;;;;;;;;;;;;;;5082466;28;19908;-73
2021/05/28 03:41:38;;;;;;;;;;;;;;;;;;5080142;28;20282;-72
2021/05/28 03:44:04;;;;;;;;;;;;;;;;;;5074155;28;19912;-72
2021/05/28 03:46:29;;;;;;;;;;;;;;;;;;5089649;28;19958;-72
2021/05/28 03:48:55;;;;;;;;;;;;;;;;;;5079861;28;20026;-72
2021/05/28 03:51:21;;;;;;;;;;;;;;;;;;5082567;28;20271;-72
2021/05/28 03:53:48;;;;;;;;;;;;;;;;;;5072373;28;19904;-72
2021/05/28 03:56:14;;;;;;;;;;;;;;;;;;5076857;28;19907;-72
2021/05/28 03:58:40;;;;;;;;;;;;;;;;;;5093230;28;19922;-72
2021/05/28 04:01:06;;;;;;;;;;;;;;;;;;5093593;28;19904;-73
2021/05/28 04:03:31;;;;;;;;;;;;;;;;;;5093765;28;19904;-72
2021/05/28 04:05:57;;;;;;;;;;;;;;;;;;5091605;28;19908;-72
2021/05/28 04:08:23;;;;;;;;;;;;;;;;;;5092962;28;19904;-72
2021/05/28 04:10:49;;;;;;;;;;;;;;;;;;5086307;28;20045;-72
2021/05/28 04:13:15;;;;;;;;;;;;;;;;;;5073025;28;20002;-72
2021/05/28 04:15:41;;;;;;;;;;;;;;;;;;5079351;28;19931;-72
2021/05/28 04:18:08;;;;;;;;;;;;;;;;;;5093414;28;19919;-73
2021/05/28 04:20:35;;;;;;;;;;;;;;;;;;5093643;28;19908;-72
2021/05/28 04:23:01;;;;;;;;;;;;;;;;;;5092810;28;20365;-72
2021/05/28 04:25:27;;;;;;;;;;;;;;;;;;5092984;28;19912;-72
2021/05/28 04:27:53;;;;;;;;;;;;;;;;;;5075259;28;19908;-72
2021/05/28 04:30:23;;;;;;;;;;;;;;;;;;5073138;28;19904;-72
2021/05/28 04:32:49;;;;;;;;;;;;;;;;;;5072579;28;19931;-72
2021/05/28 04:35:15;;;;;;;;;;;;;;;;;;5071599;28;19905;-71
2021/05/28 04:37:41;;;;;;;;;;;;;;;;;;5073624;28;20323;-72
2021/05/28 04:40:07;;;;;;;;;;;;;;;;;;5072765;28;19905;-72
2021/05/28 04:42:35;;;;;;;;;;;;;;;;;;5078176;28;19916;-73
2021/05/28 04:45:01;;;;;;;;;;;;;;;;;;5092914;28;19908;-73
2021/05/28 04:47:26;;;;;;;;;;;;;;;;;;5090704;28;19914;-73
2021/05/28 04:49:52;;;;;;;;;;;;;;;;;;5092044;28;20381;-74
2021/05/28 04:52:18;;;;;;;;;;;;;;;;;;5092198;28;20112;-73
2021/05/28 04:54:44;;;;;;;;;;;;;;;;;;5092359;28;19904;-72
2021/05/28 04:57:10;;;;;;;;;;;;;;;;;;5080640;28;19908;-72
2021/05/28 04:59:36;;;;;;;;;;;;;;;;;;5072649;28;19904;-71
2021/05/28 05:02:02;;;;;;;;;;;;;;;;;;5078663;28;19912;-71
2021/05/28 05:04:28;;;;;;;;;;;;;;;;;;5092767;28;20335;-72
2021/05/28 05:06:53;;;;;;;;;;;;;;;;;;5105938;28;19911;-72
2021/05/28 05:09:19;;;;;;;;;;;;;;;;;;5094174;27;20282;-72
2021/05/28 05:11:45;;;;;;;;;;;;;;;;;;5072951;28;19911;-72
2021/05/28 05:14:11;;;;;;;;;;;;;;;;;;5074296;28;19998;-72
2021/05/28 05:16:37;;;;;;;;;;;;;;;;;;5071523;28;19912;-72
2021/05/28 05:19:03;;;;;;;;;;;;;;;;;;5071623;28;19912;-72
2021/05/28 05:21:29;;;;;;;;;;;;;;;;;;5073601;28;19974;-73
2021/05/28 05:23:55;;;;;;;;;;;;;;;;;;5078203;28;19932;-72
2021/05/28 05:26:21;;;;;;;;;;;;;;;;;;5074806;28;20079;-71
2021/05/28 05:28:46;;;;;;;;;;;;;;;;;;5069954;28;20485;-71
2021/05/28 05:31:12;;;;;;;;;;;;;;;;;;5072144;28;19978;-72
2021/05/28 05:33:38;;;;;;;;;;;;;;;;;;5080907;28;20255;-73
2021/05/28 05:36:04;;;;;;;;;;;;;;;;;;5071219;28;19935;-73
2021/05/28 05:38:30;;;;;;;;;;;;;;;;;;5069727;28;19962;-72
2021/05/28 05:40:56;;;;;;;;;;;;;;;;;;5071509;28;19914;-73
2021/05/28 05:43:22;;;;;;;;;;;;;;;;;;5071133;28;20014;-72
2021/05/28 05:45:48;;;;;;;;;;;;;;;;;;5071254;28;19916;-73
2021/05/28 05:48:15;;;;;;;;;;;;;;;;;;5071087;28;19913;-73
2021/05/28 05:50:41;;;;;;;;;;;;;;;;;;5070267;28;19955;-70
2021/05/28 05:53:07;;;;;;;;;;;;;;;;;;5071589;28;19961;-73
2021/05/28 05:55:33;;;;;;;;;;;;;;;;;;5071132;28;19908;-73
2021/05/28 05:57:58;;;;;;;;;;;;;;;;;;5071159;28;19904;-73
2021/05/28 06:00:24;;;;;;;;;;;;;;;;;;5070042;28;20422;-72
2021/05/28 06:02:50;;;;;;;;;;;;;;;;;;5070760;28;19978;-73
2021/05/28 06:05:18;;;;;;;;;;;;;;;;;;5071052;28;19932;-73
2021/05/28 06:07:44;;;;;;;;;;;;;;;;;;5070907;28;20243;-70
2021/05/28 06:10:10;;;;;;;;;;;;;;;;;;5070248;28;20360;-71
2021/05/28 06:12:36;;;;;;;;;;;;;;;;;;5070823;28;20359;-71
2021/05/28 06:15:01;;;;;;;;;;;;;;;;;;5070787;28;19919;-70
2021/05/28 06:17:27;;;;;;;;;;;;;;;;;;5071133;28;19904;-70
2021/05/28 06:19:53;;;;;;;;;;;;;;;;;;5071026;28;19904;-71
2021/05/28 06:22:21;;;;;;;;;;;;;;;;;;5077135;28;20270;-71
2021/05/28 06:24:47;;;;;;;;;;;;;;;;;;5090952;28;19915;-71
2021/05/28 06:27:13;;;;;;;;;;;;;;;;;;5090804;28;19900;-71
2021/05/28 06:29:39;;;;;;;;;;;;;;;;;;5091123;28;19915;-71
2021/05/28 06:32:05;;;;;;;;;;;;;;;;;;5090043;28;20261;-71
2021/05/28 06:34:31;;;;;;;;;;;;;;;;;;5090635;28;19904;-71
2021/05/28 06:36:57;;;;;;;;;;;;;;;;;;5090919;28;20363;-71
2021/05/28 06:39:23;;;;;;;;;;;;;;;;;;5090859;28;19943;-71
2021/05/28 06:41:49;;;;;;;;;;;;;;;;;;5090165;28;19952;-71
2021/05/28 06:44:15;;;;;;;;;;;;;;;;;;5090507;28;19904;-71
2021/05/28 06:46:41;;;;;;;;;;;;;;;;;;5089507;28;20419;-70
2021/05/28 06:49:07;;;;;;;;;;;;;;;;;;5090899;28;19955;-70
2021/05/28 06:51:33;;;;;;;;;;;;;;;;;;5088577;28;19915;-72
2021/05/28 06:53:59;;;;;;;;;;;;;;;;;;5090407;28;19908;-71
2021/05/28 06:56:24;;;;;;;;;;;;;;;;;;5090788;28;19904;-71
2021/05/28 06:58:51;;;;;;;;;;;;;;;;;;5090367;28;20301;-71
2021/05/28 07:01:17;;;;;;;;;;;;;;;;;;5090660;28;20335;-71
2021/05/28 07:03:43;;;;;;;;;;;;;;;;;;5089387;28;19908;-71
2021/05/28 07:06:08;;;;;;;;;;;;;;;;;;5090508;28;19946;-71
2021/05/28 07:08:34;;;;;;;;;;;;;;;;;;5090365;28;19935;-71
2021/05/28 07:11:00;;;;;;;;;;;;;;;;;;5090631;28;19915;-70
2021/05/28 07:13:26;;;;;;;;;;;;;;;;;;5091972;28;19904;-71
2021/05/28 07:15:52;;;;;;;;;;;;;;;;;;5094036;28;19904;-71
2021/05/28 07:18:18;;;;;;;;;;;;;;;;;;5094416;28;19971;-71
2021/05/28 07:20:44;;;;;;;;;;;;;;;;;;5094337;28;20258;-70
2021/05/28 07:23:11;;;;;;;;;;;;;;;;;;5093234;28;20062;-71
2021/05/28 07:25:37;;;;;;;;;;;;;;;;;;5093796;28;20243;-71
2021/05/28 07:28:03;;;;;;;;;;;;;;;;;;5094173;28;19911;-70
2021/05/28 07:30:29;;;;;;;;;;;;;;;;;;5094386;28;19999;-71
2021/05/28 07:32:54;;;;;;;;;;;;;;;;;;5093670;28;19912;-70
2021/05/28 07:35:20;;;;;;;;;;;;;;;;;;5093552;28;19908;-71
2021/05/28 07:37:46;;;;;;;;;;;;;;;;;;5094275;28;19934;-71
2021/05/28 07:40:12;;;;;;;;;;;;;;;;;;5094124;28;19904;-71
2021/05/28 07:42:38;;;;;;;;;;;;;;;;;;5093432;28;19915;-71
2021/05/28 07:45:04;;;;;;;;;;;;;;;;;;5093476;28;19904;-70
2021/05/28 07:47:30;;;;;;;;;;;;;;;;;;5093690;28;20235;-70
2021/05/28 07:49:56;;;;;;;;;;;;;;;;;;5093588;28;20399;-71
2021/05/28 07:52:22;;;;;;;;;;;;;;;;;;5090512;28;19912;-71
2021/05/28 07:54:48;;;;;;;;;;;;;;;;;;5092886;28;19933;-71
2021/05/28 07:57:13;;;;;;;;;;;;;;;;;;5093694;28;20275;-71
2021/05/28 07:59:40;;;;;;;;;;;;;;;;;;5093490;28;19908;-71
2021/05/28 08:02:06;;;;;;;;;;;;;;;;;;5093035;28;19912;-72
2021/05/28 08:04:32;;;;;;;;;;;;;;;;;;5093170;28;19908;-71
2021/05/28 08:06:57;;;;;;;;;;;;;;;;;;5093481;28;19983;-71
2021/05/28 08:09:23;;;;;;;;;;;;;;;;;;5093150;28;19900;-71
2021/05/28 08:11:49;;;;;;;;;;;;;;;;;;5091825;28;19904;-70
2021/05/28 08:14:15;;;;;;;;;;;;;;;;;;5086577;28;20371;-71
2021/05/28 08:16:41;;;;;;;;;;;;;;;;;;5089343;28;20743;-71
2021/05/28 08:19:07;;;;;;;;;;;;;;;;;;5081423;28;20273;-70
2021/05/28 08:21:33;;;;;;;;;;;;;;;;;;5072693;28;19912;-71
2021/05/28 08:23:59;;;;;;;;;;;;;;;;;;5072781;28;19915;-71
2021/05/28 08:26:25;;;;;;;;;;;;;;;;;;5072306;28;19974;-70
2021/05/28 08:28:51;;;;;;;;;;;;;;;;;;5073406;28;19931;-71
2021/05/28 08:31:16;;;;;;;;;;;;;;;;;;5074506;28;19909;-71
2021/05/28 08:33:45;;;;;;;;;;;;;;;;;;5073390;28;19916;-70
2021/05/28 08:36:11;;;;;;;;;;;;;;;;;;5072492;28;19958;-71
2021/05/28 08:38:37;;;;;;;;;;;;;;;;;;5072760;28;19904;-71
2021/05/28 08:41:03;;;;;;;;;;;;;;;;;;5073250;28;19943;-71
2021/05/28 08:43:29;;;;;;;;;;;;;;;;;;5078639;28;20011;-71
2021/05/28 08:45:55;;;;;;;;;;;;;;;;;;5091661;28;19998;-72
2021/05/28 08:48:21;;;;;;;;;;;;;;;;;;5089449;28;20263;-71
2021/05/28 08:50:47;;;;;;;;;;;;;;;;;;5072472;28;20312;-72
2021/05/28 08:53:13;;;;;;;;;;;;;;;;;;5072548;28;19912;-72
2021/05/28 08:55:39;;;;;;;;;;;;;;;;;;5072178;28;19999;-72
2021/05/28 08:58:05;;;;;;;;;;;;;;;;;;5086738;28;19922;-72
2021/05/28 09:00:31;;;;;;;;;;;;;;;;;;5076688;28;19999;-72
2021/05/28 09:02:56;;;;;;;;;;;;;;;;;;5091001;28;20340;-73
2021/05/28 09:05:23;;;;;;;;;;;;;;;;;;5088763;28;20338;-70
2021/05/28 09:07:49;;;;;;;;;;;;;;;;;;5083087;28;19990;-71
2021/05/28 09:10:15;;;;;;;;;;;;;;;;;;5071688;28;19995;-72
2021/05/28 09:12:41;;;;;;;;;;;;;;;;;;5085018;28;19908;-72
2021/05/28 09:15:07;;;;;;;;;;;;;;;;;;5092202;28;20500;-73
2021/05/28 09:17:33;;;;;;;;;;;;;;;;;;5091843;28;19957;-73
2021/05/28 09:20:00;;;;;;;;;;;;;;;;;;5075718;28;19916;-74
2021/05/28 09:22:26;;;;;;;;;;;;;;;;;;5070508;28;20418;-74
2021/05/28 09:24:52;;;;;;;;;;;;;;;;;;5071750;28;19995;-73
2021/05/28 09:27:18;;;;;;;;;;;;;;;;;;5071592;28;19904;-74
2021/05/28 09:29:43;;;;;;;;;;;;;;;;;;5088080;28;20354;-73
2021/05/28 09:32:09;;;;;;;;;;;;;;;;;;5073248;28;20383;-76
2021/05/28 09:34:37;;;;;;;;;;;;;;;;;;5090670;28;19914;-75
2021/05/28 09:37:03;;;;;;;;;;;;;;;;;;5091217;28;19994;-75
2021/05/28 09:39:29;;;;;;;;;;;;;;;;;;5091628;28;19908;-74
2021/05/28 09:41:57;;;;;;;;;;;;;;;;;;5091317;28;20010;-74
2021/05/28 09:44:23;;;;;;;;;;;;;;;;;;5086700;28;19912;-75
2021/05/28 09:46:49;;;;;;;;;;;;;;;;;;5072440;28;19935;-74
2021/05/28 09:49:15;;;;;;;;;;;;;;;;;;5071024;28;19943;-74
2021/05/28 09:51:40;;;;;;;;;;;;;;;;;;5069749;28;20206;-75
2021/05/28 09:54:06;;;;;;;;;;;;;;;;;;5070954;28;20462;-75
2021/05/28 09:56:34;;;;;;;;;;;;;;;;;;5071121;28;19904;-75
2021/05/28 09:59:01;;;;;;;;;;;;;;;;;;5075717;28;19908;-75
2021/05/28 10:01:26;;;;;;;;;;;;;;;;;;5073589;28;19908;-76
2021/05/28 10:03:52;;;;;;;;;;;;;;;;;;5083465;28;20084;-75
2021/05/28 10:06:18;;;;;;;;;;;;;;;;;;5085582;28;19930;-75
2021/05/28 10:08:44;;;;;;;;;;;;;;;;;;5091167;28;19904;-75
2021/05/28 10:11:10;;;;;;;;;;;;;;;;;;5071939;28;20358;-75
2021/05/28 10:13:36;;;;;;;;;;;;;;;;;;5084985;28;19912;-75
2021/05/28 10:16:03;;;;;;;;;;;;;;;;;;5081264;28;19912;-74
2021/05/28 10:18:29;;;;;;;;;;;;;;;;;;5089151;28;19916;-75
2021/05/28 10:20:55;;;;;;;;;;;;;;;;;;5091012;28;20052;-75
2021/05/28 10:23:22;;;;;;;;;;;;;;;;;;5089256;28;20675;-75
2021/05/28 10:25:48;;;;;;;;;;;;;;;;;;5070874;28;19911;-75
2021/05/28 10:28:14;;;;;;;;;;;;;;;;;;5081830;28;19908;-73
2021/05/28 10:30:40;;;;;;;;;;;;;;;;;;5083818;28;20016;-73
2021/05/28 10:33:06;;;;;;;;;;;;;;;;;;5080962;28;19930;-73
2021/05/28 10:35:32;;;;;;;;;;;;;;;;;;5089708;28;20360;-73
2021/05/28 10:37:58;;;;;;;;;;;;;;;;;;5090917;28;19911;-73
2021/05/28 10:40:24;;;;;;;;;;;;;;;;;;5090998;28;19930;-73
2021/05/28 10:42:49;;;;;;;;;;;;;;;;;;5090871;28;19994;-73
2021/05/28 10:45:15;;;;;;;;;;;;;;;;;;5077629;28;19908;-72
2021/05/28 10:47:41;;;;;;;;;;;;;;;;;;5070569;28;19926;-74
2021/05/28 10:50:07;;;;;;;;;;;;;;;;;;5075280;28;20309;-74
2021/05/28 10:52:34;;;;;;;;;;;;;;;;;;5074891;28;19905;-73
2021/05/28 10:55:01;;;;;;;;;;;;;;;;;;5074958;28;19911;-73
2021/05/28 10:57:27;;;;;;;;;;;;;;;;;;5075338;28;19995;-74
2021/05/28 10:59:53;;;;;;;;;;;;;;;;;;5093679;28;20078;-74
2021/05/28 11:02:19;;;;;;;;;;;;;;;;;;5094626;28;19955;-73
2021/05/28 11:04:46;;;;;;;;;;;;;;;;;;5081072;28;19907;-76
2021/05/28 11:07:12;;;;;;;;;;;;;;;;;;5071218;28;19912;-75
2021/05/28 11:09:38;;;;;;;;;;;;;;;;;;5075689;28;20270;-75
2021/05/28 11:12:06;;;;;;;;;;;;;;;;;;5073959;28;19962;-74
2021/05/28 11:14:35;;;;;;;;;;;;;;;;;;5076657;28;20003;-75
2021/05/28 11:17:01;;;;;;;;;;;;;;;;;;5094451;28;19904;-74
2021/05/28 11:19:26;;;;;;;;;;;;;;;;;;5081399;28;19915;-74
2021/05/28 11:21:52;;;;;;;;;;;;;;;;;;5083617;28;20347;-73
2021/05/28 11:24:18;;;;;;;;;;;;;;;;;;5093852;28;19904;-73
2021/05/28 11:26:44;;;;;;;;;;;;;;;;;;5093924;28;19983;-73
2021/05/28 11:29:10;;;;;;;;;;;;;;;;;;5083924;28;19975;-73
2021/05/28 11:31:36;;;;;;;;;;;;;;;;;;5074114;28;19904;-74
2021/05/28 11:34:02;;;;;;;;;;;;;;;;;;5073811;28;20065;-72
2021/05/28 11:36:28;;;;;;;;;;;;;;;;;;5074066;28;20045;-73
2021/05/28 11:38:54;;;;;;;;;;;;;;;;;;5073734;28;20248;-73
2021/05/28 11:41:20;;;;;;;;;;;;;;;;;;5073876;28;19997;-73
2021/05/28 11:43:46;;;;;;;;;;;;;;;;;;5073670;28;19997;-73
2021/05/28 11:46:12;;;;;;;;;;;;;;;;;;5073869;28;19905;-73
2021/05/28 11:48:37;;;;;;;;;;;;;;;;;;5073662;28;19916;-74
2021/05/28 11:51:04;;;;;;;;;;;;;;;;;;5073357;28;19904;-74
2021/05/28 11:53:30;;;;;;;;;;;;;;;;;;5073592;28;20013;-74
2021/05/28 11:55:56;;;;;;;;;;;;;;;;;;5073683;28;20001;-73
2021/05/28 11:58:21;;;;;;;;;;;;;;;;;;5073035;28;19948;-73
2021/05/28 12:00:47;;;;;;;;;;;;;;;;;;5073711;28;20266;-73
2021/05/28 12:03:13;;;;;;;;;;;;;;;;;;5080841;28;19916;-73
2021/05/28 12:05:40;;;;;;;;;;;;;;;;;;5073461;28;20483;-73
2021/05/28 12:08:06;;;;;;;;;;;;;;;;;;5073290;28;20011;-73
2021/05/28 12:10:32;;;;;;;;;;;;;;;;;;5073478;28;19995;-73
2021/05/28 12:12:58;;;;;;;;;;;;;;;;;;5073526;28;19908;-73
2021/05/28 12:15:24;;;;;;;;;;;;;;;;;;5072521;28;19927;-73
2021/05/28 12:17:50;;;;;;;;;;;;;;;;;;5077668;28;20004;-73
2021/05/28 12:20:15;;;;;;;;;;;;;;;;;;5075458;28;19908;-71
2021/05/28 12:22:41;;;;;;;;;;;;;;;;;;5073185;28;19959;-73
2021/05/28 12:25:07;;;;;;;;;;;;;;;;;;5073232;28;19908;-71
2021/05/28 12:27:33;;;;;;;;;;;;;;;;;;5073067;28;19947;-72
2021/05/28 12:29:59;;;;;;;;;;;;;;;;;;5071902;28;19960;-72
2021/05/28 12:32:25;;;;;;;;;;;;;;;;;;5072837;28;20317;-72
2021/05/28 12:34:51;;;;;;;;;;;;;;;;;;5072833;28;19900;-72
2021/05/28 12:37:16;;;;;;;;;;;;;;;;;;5072640;28;19984;-72
2021/05/28 12:39:42;;;;;;;;;;;;;;;;;;5072810;28;19912;-71
2021/05/28 12:42:08;;;;;;;;;;;;;;;;;;5071467;28;19912;-72
2021/05/28 12:44:34;;;;;;;;;;;;;;;;;;5072536;28;19980;-72
2021/05/28 12:47:00;;;;;;;;;;;;;;;;;;5072587;28;19915;-74
2021/05/28 12:49:26;;;;;;;;;;;;;;;;;;5090588;28;19916;-72
2021/05/28 12:51:52;;;;;;;;;;;;;;;;;;5093012;28;19957;-73
2021/05/28 12:54:19;;;;;;;;;;;;;;;;;;5092807;28;19912;-72
2021/05/28 12:56:45;;;;;;;;;;;;;;;;;;5092401;28;19904;-72
2021/05/28 12:59:10;;;;;;;;;;;;;;;;;;5092529;28;20444;-73
2021/05/28 13:01:36;;;;;;;;;;;;;;;;;;5092743;28;19908;-73
2021/05/28 13:04:02;;;;;;;;;;;;;;;;;;5092627;28;20430;-71
2021/05/28 13:06:28;;;;;;;;;;;;;;;;;;5092358;28;19911;-72
2021/05/28 13:08:54;;;;;;;;;;;;;;;;;;5092429;28;20347;-72
2021/05/28 13:11:20;;;;;;;;;;;;;;;;;;5091314;28;19911;-72
2021/05/28 13:13:46;;;;;;;;;;;;;;;;;;5092399;28;19904;-72
2021/05/28 13:16:12;;;;;;;;;;;;;;;;;;5092146;28;19908;-72
2021/05/28 13:18:38;;;;;;;;;;;;;;;;;;5080204;28;20002;-72
2021/05/28 13:21:03;;;;;;;;;;;;;;;;;;5077874;28;20278;-72
2021/05/28 13:23:33;;;;;;;;;;;;;;;;;;5092216;28;20008;-73
2021/05/28 13:25:59;;;;;;;;;;;;;;;;;;5091712;28;20259;-73
2021/05/28 13:28:27;;;;;;;;;;;;;;;;;;5092323;28;19910;-72
2021/05/28 13:30:54;;;;;;;;;;;;;;;;;;5092211;28;19904;-72
2021/05/28 13:33:20;;;;;;;;;;;;;;;;;;5091690;28;19919;-72
2021/05/28 13:35:46;;;;;;;;;;;;;;;;;;5092079;28;19904;-72
2021/05/28 13:38:12;;;;;;;;;;;;;;;;;;5091752;28;19981;-72
2021/05/28 13:40:38;;;;;;;;;;;;;;;;;;5091991;28;20003;-73
2021/05/28 13:43:03;;;;;;;;;;;;;;;;;;5091719;28;19911;-72
2021/05/28 13:45:29;;;;;;;;;;;;;;;;;;5092021;28;19912;-72
2021/05/28 13:47:55;;;;;;;;;;;;;;;;;;5085506;28;19912;-73
2021/05/28 13:50:23;;;;;;;;;;;;;;;;;;5071501;28;19904;-72
2021/05/28 13:52:49;;;;;;;;;;;;;;;;;;5071588;28;20524;-73
2021/05/28 13:55:15;;;;;;;;;;;;;;;;;;5071576;28;19904;-72
2021/05/28 13:57:42;;;;;;;;;;;;;;;;;;5070851;28;20235;-72
2021/05/28 14:00:08;;;;;;;;;;;;;;;;;;5071390;28;19943;-73
2021/05/28 14:02:34;;;;;;;;;;;;;;;;;;5071368;28;19962;-73
2021/05/28 14:05:00;;;;;;;;;;;;;;;;;;5071525;28;19918;-73
2021/05/28 14:07:26;;;;;;;;;;;;;;;;;;5071050;28;19907;-73
2021/05/28 14:09:52;;;;;;;;;;;;;;;;;;5071058;28;20262;-73
2021/05/28 14:12:18;;;;;;;;;;;;;;;;;;5071482;28;19901;-73
2021/05/28 14:14:44;;;;;;;;;;;;;;;;;;5071917;28;19959;-72
2021/05/28 14:17:10;;;;;;;;;;;;;;;;;;5078924;28;19952;-73
2021/05/28 14:19:36;;;;;;;;;;;;;;;;;;5077661;28;20339;-73
2021/05/28 14:22:01;;;;;;;;;;;;;;;;;;5086155;28;19927;-72
2021/05/28 14:24:27;;;;;;;;;;;;;;;;;;5077824;28;19912;-74
2021/05/28 14:26:53;;;;;;;;;;;;;;;;;;5091072;28;19949;-73
2021/05/28 14:29:19;;;;;;;;;;;;;;;;;;5081289;28;19904;-73
2021/05/28 14:31:45;;;;;;;;;;;;;;;;;;5070354;28;20439;-73
2021/05/28 14:34:11;;;;;;;;;;;;;;;;;;5070896;28;19911;-73
2021/05/28 14:36:37;;;;;;;;;;;;;;;;;;5084917;28;19935;-74
2021/05/28 14:39:03;;;;;;;;;;;;;;;;;;5110679;27;19903;-74
2021/05/28 14:41:29;;;;;;;;;;;;;;;;;;5091782;28;20015;-72
2021/05/28 14:43:55;;;;;;;;;;;;;;;;;;5074825;28;20003;-73
2021/05/28 14:46:21;;;;;;;;;;;;;;;;;;5078838;28;20023;-72
2021/05/28 14:48:47;;;;;;;;;;;;;;;;;;5069951;28;19923;-73
2021/05/28 14:51:13;;;;;;;;;;;;;;;;;;5075648;28;20370;-73
2021/05/28 14:53:39;;;;;;;;;;;;;;;;;;5072127;28;20375;-73
2021/05/28 14:56:05;;;;;;;;;;;;;;;;;;5075184;28;19914;-73
2021/05/28 14:58:31;;;;;;;;;;;;;;;;;;5085006;28;19969;-73
2021/05/28 15:00:59;;;;;;;;;;;;;;;;;;5071205;28;19909;-73
2021/05/28 15:03:25;;;;;;;;;;;;;;;;;;5077182;28;20027;-73
2021/05/28 15:05:51;;;;;;;;;;;;;;;;;;5084809;28;19999;-73
2021/05/28 15:08:16;;;;;;;;;;;;;;;;;;5069937;28;19905;-73
2021/05/28 15:10:44;;;;;;;;;;;;;;;;;;5072565;28;19908;-73
2021/05/28 15:13:10;;;;;;;;;;;;;;;;;;5089349;28;19947;-73
2021/05/28 15:15:37;;;;;;;;;;;;;;;;;;5090170;28;19966;-73
2021/05/28 15:18:06;;;;;;;;;;;;;;;;;;5072529;28;19908;-73
2021/05/28 15:20:32;;;;;;;;;;;;;;;;;;5072618;28;19912;-73
2021/05/28 15:22:58;;;;;;;;;;;;;;;;;;5081512;28;19916;-72
2021/05/28 15:25:24;;;;;;;;;;;;;;;;;;5077717;28;19908;-71
2021/05/28 15:27:50;;;;;;;;;;;;;;;;;;5075064;28;20349;-72
2021/05/28 15:30:16;;;;;;;;;;;;;;;;;;5071257;28;19905;-72
2021/05/28 15:32:42;;;;;;;;;;;;;;;;;;5086656;28;20386;-74
2021/05/28 15:35:09;;;;;;;;;;;;;;;;;;5072813;28;19908;-73
2021/05/28 15:37:35;;;;;;;;;;;;;;;;;;5086976;28;19908;-73
2021/05/28 15:40:01;;;;;;;;;;;;;;;;;;5088410;28;20070;-73
2021/05/28 15:42:27;;;;;;;;;;;;;;;;;;5081055;28;19962;-73
2021/05/28 15:44:53;;;;;;;;;;;;;;;;;;5079395;28;20299;-73
2021/05/28 15:47:19;;;;;;;;;;;;;;;;;;5092080;28;19904;-73
2021/05/28 15:49:45;;;;;;;;;;;;;;;;;;5093625;28;19919;-73
2021/05/28 15:52:10;;;;;;;;;;;;;;;;;;5093926;28;19911;-73
2021/05/28 15:54:36;;;;;;;;;;;;;;;;;;5093700;28;19904;-73
2021/05/28 15:57:03;;;;;;;;;;;;;;;;;;5093821;28;19959;-73
2021/05/28 15:59:29;;;;;;;;;;;;;;;;;;5093588;28;19961;-73
2021/05/28 16:01:55;;;;;;;;;;;;;;;;;;5093309;28;19922;-73
2021/05/28 16:04:21;;;;;;;;;;;;;;;;;;5079617;28;20388;-73
2021/05/28 16:06:47;;;;;;;;;;;;;;;;;;5073557;28;19999;-73
2021/05/28 16:09:13;;;;;;;;;;;;;;;;;;5073211;28;19904;-73
2021/05/28 16:11:39;;;;;;;;;;;;;;;;;;5078361;28;19932;-74
2021/05/28 16:14:05;;;;;;;;;;;;;;;;;;5093073;28;19908;-73
2021/05/28 16:16:31;;;;;;;;;;;;;;;;;;5093506;28;20339;-73
2021/05/28 16:18:56;;;;;;;;;;;;;;;;;;5093467;28;19932;-72
2021/05/28 16:21:22;;;;;;;;;;;;;;;;;;5093342;28;19904;-73
2021/05/28 16:23:48;;;;;;;;;;;;;;;;;;5091476;28;19961;-73
2021/05/28 16:26:14;;;;;;;;;;;;;;;;;;5092636;28;19951;-73
2021/05/28 16:28:40;;;;;;;;;;;;;;;;;;5093407;28;20007;-73
2021/05/28 16:31:06;;;;;;;;;;;;;;;;;;5093067;28;20003;-73
2021/05/28 16:33:32;;;;;;;;;;;;;;;;;;5092916;28;19980;-73
2021/05/28 16:35:58;;;;;;;;;;;;;;;;;;5091343;28;19910;-73
2021/05/28 16:38:24;;;;;;;;;;;;;;;;;;5093018;28;19911;-73
2021/05/28 16:40:50;;;;;;;;;;;;;;;;;;5093031;28;19908;-73